createdAt,value
2022-12-23T00:01:45.799Z,97032.38
2022-12-23T00:04:12.472Z,97031.63
2022-12-23T00:06:38.960Z,97028.41
2022-12-23T00:09:05.357Z,97035.91
2022-12-23T00:11:31.915Z,97026.88
2022-12-23T00:14:21.626Z,97034.34
2022-12-23T00:16:50.470Z,97025.66
2022-12-23T00:19:17.111Z,97032.03
2022-12-23T00:21:43.510Z,97033.88
2022-12-23T00:24:12.063Z,97033.94
2022-12-23T00:26:38.589Z,97044.66
2022-12-23T00:29:05.530Z,97046.81
2022-12-23T00:31:32.233Z,97044.66
2022-12-23T00:33:58.772Z,97049.97
2022-12-23T00:36:27.996Z,97033.53
2022-12-23T00:39:14.339Z,97050.06
2022-12-23T00:41:59.823Z,97057.66
2022-12-23T00:44:26.487Z,97067.00
2022-12-23T00:46:53.103Z,97062.72
2022-12-23T00:49:38.682Z,97060.06
2022-12-23T00:52:06.848Z,97070.53
2022-12-23T00:54:33.519Z,97071.63
2022-12-23T00:57:00.489Z,97082.84
2022-12-23T00:59:27.016Z,97093.06
2022-12-23T01:02:12.193Z,97090.19
2022-12-23T01:04:57.513Z,97090.19
2022-12-23T01:07:24.398Z,97104.88
2022-12-23T01:09:50.806Z,97099.53
2022-12-23T01:12:17.414Z,97099.53
2022-12-23T01:14:43.856Z,97108.38
2022-12-23T01:17:10.347Z,97119.56
2022-12-23T01:19:36.877Z,97126.72
2022-12-23T01:22:03.468Z,97130.50
2022-12-23T01:24:31.186Z,97137.19
2022-12-23T01:26:58.021Z,97136.31
2022-12-23T01:29:25.101Z,97152.28
2022-12-23T01:31:51.633Z,97158.59
2022-12-23T01:34:18.151Z,97163.47
2022-12-23T01:36:44.676Z,97165.28
2022-12-23T01:39:11.117Z,97164.00
2022-12-23T01:41:56.094Z,97185.13
2022-12-23T01:44:49.119Z,97180.53
2022-12-23T01:47:26.914Z,97175.22
2022-12-23T01:50:17.271Z,97186.16
2022-12-23T01:52:50.084Z,97183.13
2022-12-23T01:55:20.750Z,97186.75
2022-12-23T01:57:48.192Z,97190.19
2022-12-23T02:00:34.168Z,97189.06
2022-12-23T02:03:19.282Z,97185.53
2022-12-23T02:05:46.815Z,97194.97
2022-12-23T02:08:34.113Z,97198.09
2022-12-23T02:11:34.311Z,97198.09
2022-12-23T02:14:47.680Z,97206.69
2022-12-23T02:17:31.255Z,97215.72
2022-12-23T02:20:08.939Z,97221.03
2022-12-23T02:22:38.001Z,97224.19
2022-12-23T02:25:10.605Z,97223.63
2022-12-23T02:27:58.949Z,97231.06
2022-12-23T02:30:30.183Z,97231.94
2022-12-23T02:33:24.250Z,97232.69
2022-12-23T02:36:13.923Z,97232.09
2022-12-23T02:38:51.750Z,97243.56
2022-12-23T02:41:32.752Z,97252.03
2022-12-23T02:44:29.599Z,97245.59
2022-12-23T02:47:01.715Z,97255.75
2022-12-23T02:49:36.454Z,97255.56
2022-12-23T02:52:07.913Z,97261.63
2022-12-23T02:54:41.746Z,97251.00
2022-12-23T02:57:11.549Z,97264.16
2022-12-23T02:59:47.205Z,97269.00
2022-12-23T03:02:13.908Z,97266.63
2022-12-23T03:04:42.109Z,97260.66
2022-12-23T03:07:23.433Z,97271.41
2022-12-23T03:10:07.953Z,97276.72
2022-12-23T03:12:52.939Z,97277.19
2022-12-23T03:15:41.271Z,97279.31
2022-12-23T03:18:22.106Z,97284.16
2022-12-23T03:20:51.557Z,97281.97
2022-12-23T03:23:29.901Z,97285.19
2022-12-23T03:26:08.321Z,97286.91
2022-12-23T03:28:47.750Z,97286.09
2022-12-23T03:31:22.736Z,97295.91
2022-12-23T03:33:56.290Z,97292.69
2022-12-23T03:36:26.327Z,97306.56
2022-12-23T03:38:55.498Z,97299.88
2022-12-23T03:41:30.171Z,97297.53
2022-12-23T03:44:02.999Z,97301.75
2022-12-23T03:46:38.684Z,97301.06
2022-12-23T03:49:09.287Z,97299.09
2022-12-23T03:51:47.384Z,97315.69
2022-12-23T03:54:22.012Z,97319.16
2022-12-23T03:56:54.859Z,97301.88
2022-12-23T03:59:25.760Z,97333.75
2022-12-23T04:02:04.036Z,97320.59
2022-12-23T04:04:38.298Z,97318.03
2022-12-23T04:07:11.100Z,97317.56
2022-12-23T04:09:38.506Z,97319.63
2022-12-23T04:12:05.353Z,97322.28
2022-12-23T04:14:34.153Z,97326.56
2022-12-23T04:17:00.720Z,97333.84
2022-12-23T04:19:27.332Z,97340.53
2022-12-23T04:21:57.800Z,97338.78
2022-12-23T04:24:24.259Z,97336.13
2022-12-23T04:26:50.654Z,97343.06
2022-12-23T04:29:17.207Z,97343.75
2022-12-23T04:31:43.655Z,97343.75
2022-12-23T04:34:10.145Z,97354.09
2022-12-23T04:36:36.533Z,97346.34
2022-12-23T04:39:03.082Z,97351.66
2022-12-23T04:41:29.501Z,97319.22
2022-12-23T04:43:55.946Z,97350.97
2022-12-23T04:46:22.405Z,97345.72
2022-12-23T04:48:48.878Z,97344.34
2022-12-23T04:51:15.399Z,97343.06
2022-12-23T04:53:41.794Z,97330.78
2022-12-23T04:56:08.401Z,97347.66
2022-12-23T04:58:34.821Z,97342.34
2022-12-23T05:01:06.523Z,97345.00
2022-12-23T05:03:33.313Z,97345.31
2022-12-23T05:06:00.893Z,97330.63
2022-12-23T05:08:27.566Z,97326.66
2022-12-23T05:10:54.230Z,97330.72
2022-12-23T05:13:21.265Z,97342.91
2022-12-23T05:15:52.430Z,97344.03
2022-12-23T05:18:19.234Z,97339.03
2022-12-23T05:20:45.884Z,97350.97
2022-12-23T05:23:12.388Z,97353.81
2022-12-23T05:25:39.906Z,97351.53
2022-12-23T05:28:10.683Z,97364.03
2022-12-23T05:30:37.175Z,97357.16
2022-12-23T05:33:03.731Z,97372.09
2022-12-23T05:35:30.283Z,97353.47
2022-12-23T05:37:57.656Z,97358.22
2022-12-23T05:40:29.176Z,97351.28
2022-12-23T05:42:57.577Z,97367.03
2022-12-23T05:45:24.106Z,97360.88
2022-12-23T05:47:50.590Z,97365.16
2022-12-23T05:50:17.012Z,97354.66
2022-12-23T05:52:43.460Z,97361.94
2022-12-23T05:55:10.328Z,97365.75
2022-12-23T05:57:36.871Z,97360.97
2022-12-23T06:00:04.439Z,97359.34
2022-12-23T06:02:38.941Z,97360.06
2022-12-23T06:05:05.920Z,97357.41
2022-12-23T06:07:32.440Z,97354.19
2022-12-23T06:09:58.875Z,97354.66
2022-12-23T06:12:25.333Z,97360.81
2022-12-23T06:14:52.045Z,97364.59
2022-12-23T06:17:18.520Z,97358.44
2022-12-23T06:19:44.954Z,97364.97
2022-12-23T06:22:11.404Z,97372.50
2022-12-23T06:24:37.798Z,97374.22
2022-12-23T06:27:04.411Z,97367.25
2022-12-23T06:29:30.802Z,97365.78
2022-12-23T06:31:57.375Z,97375.88
2022-12-23T06:34:23.897Z,97373.94
2022-12-23T06:36:50.339Z,97380.63
2022-12-23T06:39:16.869Z,97372.56
2022-12-23T06:41:43.267Z,97372.22
2022-12-23T06:44:10.117Z,97374.44
2022-12-23T06:46:36.564Z,97362.50
2022-12-23T06:49:09.059Z,97387.06
2022-12-23T06:51:39.238Z,97385.84
2022-12-23T06:54:05.674Z,97385.84
2022-12-23T06:56:33.578Z,97381.50
2022-12-23T06:59:00.048Z,97381.97
2022-12-23T07:01:26.695Z,97373.91
2022-12-23T07:03:53.204Z,97378.50
2022-12-23T07:06:19.706Z,97362.22
2022-12-23T07:08:46.151Z,97367.13
2022-12-23T07:11:12.650Z,97364.72
2022-12-23T07:13:39.315Z,97363.44
2022-12-23T07:16:08.492Z,97352.06
2022-12-23T07:18:35.607Z,97356.38
2022-12-23T07:21:03.386Z,97351.03
2022-12-23T07:23:30.282Z,97352.31
2022-12-23T07:25:57.005Z,97353.47
2022-12-23T07:28:24.297Z,97363.53
2022-12-23T07:30:51.041Z,97372.81
2022-12-23T07:33:17.493Z,97348.72
2022-12-23T07:35:44.014Z,97386.09
2022-12-23T07:38:10.784Z,97396.50
2022-12-23T07:40:37.355Z,97401.41
2022-12-23T07:43:03.875Z,97403.72
2022-12-23T07:45:30.415Z,97401.47
2022-12-23T07:47:59.036Z,97396.81
2022-12-23T07:50:26.344Z,97397.81
2022-12-23T07:52:53.773Z,97397.31
2022-12-23T07:55:20.593Z,97396.78
2022-12-23T07:57:53.571Z,97391.91
2022-12-23T08:00:20.774Z,97390.84
2022-12-23T08:02:48.186Z,97394.88
2022-12-23T08:05:15.470Z,97384.50
2022-12-23T08:07:42.189Z,97384.91
2022-12-23T08:10:09.473Z,97377.06
2022-12-23T08:12:36.063Z,97377.56
2022-12-23T08:15:02.604Z,97370.03
2022-12-23T08:17:30.080Z,97359.59
2022-12-23T08:19:57.013Z,97361.97
2022-12-23T08:22:24.102Z,97366.72
2022-12-23T08:24:50.615Z,97361.25
2022-12-23T08:27:17.066Z,97387.72
2022-12-23T08:29:43.567Z,97383.28
2022-12-23T08:32:10.124Z,97373.09
2022-12-23T08:34:36.778Z,97371.72
2022-12-23T08:37:03.295Z,97372.16
2022-12-23T08:39:29.779Z,97364.38
2022-12-23T08:41:56.213Z,97375.84
2022-12-23T08:44:22.856Z,97381.72
2022-12-23T08:46:49.366Z,97381.19
2022-12-23T08:49:15.822Z,97394.50
2022-12-23T08:51:42.561Z,97396.69
2022-12-23T08:54:10.242Z,97392.94
2022-12-23T08:56:40.669Z,97408.47
2022-12-23T08:59:18.064Z,97400.72
2022-12-23T09:01:45.534Z,97388.69
2022-12-23T09:04:12.037Z,97386.94
2022-12-23T09:06:41.142Z,97388.28
2022-12-23T09:09:09.920Z,97396.22
2022-12-23T09:11:36.559Z,97392.56
2022-12-23T09:14:03.816Z,97389.66
2022-12-23T09:16:31.032Z,97394.75
2022-12-23T09:18:58.221Z,97416.41
2022-12-23T09:21:25.075Z,97390.78
2022-12-23T09:23:51.784Z,97396.69
2022-12-23T09:26:24.012Z,97393.28
2022-12-23T09:28:51.380Z,97398.63
2022-12-23T09:31:18.588Z,97400.25
2022-12-23T09:33:49.819Z,97392.81
2022-12-23T09:36:16.788Z,97385.06
2022-12-23T09:38:43.758Z,97388.28
2022-12-23T09:41:20.893Z,97381.41
2022-12-23T09:44:14.053Z,97380.38
2022-12-23T09:46:49.419Z,97388.69
2022-12-23T09:49:18.442Z,97384.88
2022-12-23T09:51:47.310Z,97379.41
2022-12-23T09:54:33.945Z,97369.53
2022-12-23T09:57:07.987Z,97359.44
2022-12-23T10:00:10.052Z,97365.81
2022-12-23T10:02:46.215Z,97359.44
2022-12-23T10:05:37.893Z,97358.06
2022-12-23T10:08:27.571Z,97348.72
2022-12-23T10:11:00.259Z,97347.72
2022-12-23T10:13:41.031Z,97342.09
2022-12-23T10:16:13.093Z,97343.38
2022-12-23T10:19:17.461Z,97350.88
2022-12-23T10:21:48.993Z,97337.53
2022-12-23T10:24:42.695Z,97342.78
2022-12-23T10:27:23.249Z,97338.03
2022-12-23T10:29:50.085Z,97350.22
2022-12-23T10:32:34.561Z,97324.38
2022-12-23T10:35:08.290Z,97323.56
2022-12-23T10:37:42.376Z,97301.56
2022-12-23T10:40:19.632Z,97318.31
2022-12-23T10:42:51.464Z,97322.06
2022-12-23T10:45:23.405Z,97315.66
2022-12-23T10:48:20.150Z,97306.63
2022-12-23T10:51:01.377Z,97297.53
2022-12-23T10:53:59.975Z,97287.94
2022-12-23T10:56:29.738Z,97281.81
2022-12-23T10:59:00.142Z,97285.28
2022-12-23T11:01:29.888Z,97285.03
2022-12-23T11:04:07.559Z,97255.50
2022-12-23T11:06:39.360Z,97270.81
2022-12-23T11:09:11.472Z,97261.28
2022-12-23T11:12:02.620Z,97246.88
2022-12-23T11:14:33.265Z,97244.81
2022-12-23T11:17:00.376Z,97245.38
2022-12-23T11:19:26.942Z,97239.28
2022-12-23T11:21:58.635Z,97232.91
2022-12-23T11:24:27.146Z,97209.09
2022-12-23T11:27:04.525Z,97216.97
2022-12-23T11:29:39.419Z,97206.59
2022-12-23T11:32:24.818Z,97199.09
2022-12-23T11:34:52.408Z,97202.94
2022-12-23T11:37:36.567Z,97191.72
2022-12-23T11:40:20.574Z,97195.44
2022-12-23T11:42:51.809Z,97187.13
2022-12-23T11:45:25.268Z,97186.63
2022-12-23T11:47:52.028Z,97186.41
2022-12-23T11:50:37.304Z,97185.63
2022-12-23T11:53:20.997Z,97181.06
2022-12-23T11:56:01.279Z,97174.59
2022-12-23T11:58:29.703Z,97170.41
2022-12-23T12:00:59.034Z,97172.31
2022-12-23T12:03:34.696Z,97154.47
2022-12-23T12:06:04.946Z,97151.19
2022-12-23T12:08:37.630Z,97134.69
2022-12-23T12:11:25.362Z,97137.97
2022-12-23T12:14:00.274Z,97135.84
2022-12-23T12:17:11.742Z,97135.28
2022-12-23T12:20:05.174Z,97121.97
2022-12-23T12:22:56.370Z,97116.16
2022-12-23T12:25:39.519Z,97100.47
2022-12-23T12:28:13.324Z,97109.25
2022-12-23T12:30:48.501Z,97102.88
2022-12-23T12:33:35.480Z,97076.88
2022-12-23T12:36:15.170Z,97091.16
2022-12-23T12:38:45.773Z,97087.94
2022-12-23T12:41:28.108Z,97079.63
2022-12-23T12:44:04.102Z,97087.91
2022-12-23T12:46:36.746Z,97081.53
2022-12-23T12:49:22.379Z,97075.38
2022-12-23T12:52:08.789Z,97037.56
2022-12-23T12:54:40.967Z,97072.47
2022-12-23T12:57:14.406Z,97062.59
2022-12-23T12:59:41.836Z,97068.19
2022-12-23T13:02:32.973Z,97070.34
2022-12-23T13:05:10.538Z,97051.66
2022-12-23T13:08:05.045Z,97049.53
2022-12-23T13:10:43.816Z,97047.97
2022-12-23T13:13:56.117Z,97048.50
2022-12-23T13:16:37.576Z,97046.44
2022-12-23T13:19:31.912Z,97044.56
2022-12-23T13:22:10.089Z,97032.28
2022-12-23T13:25:01.183Z,97033.59
2022-12-23T13:27:34.321Z,97019.19
2022-12-23T13:30:08.794Z,97012.56
2022-12-23T13:32:53.558Z,97018.50
2022-12-23T13:35:32.133Z,97015.53
2022-12-23T13:38:37.748Z,97019.53
2022-12-23T13:41:30.122Z,97021.44
2022-12-23T13:44:02.634Z,97014.22
2022-12-23T13:46:55.516Z,97017.41
2022-12-23T13:49:31.516Z,97021.44
2022-12-23T13:52:13.091Z,97008.13
2022-12-23T13:55:07.436Z,96998.78
2022-12-23T13:58:00.970Z,97010.03
2022-12-23T14:00:33.173Z,97004.91
2022-12-23T14:03:00.146Z,97007.03
2022-12-23T14:05:30.822Z,97003.59
2022-12-23T14:07:59.952Z,96999.06
2022-12-23T14:10:27.015Z,97002.81
2022-12-23T14:13:01.597Z,97000.16
2022-12-23T14:15:31.437Z,96997.41
2022-12-23T14:18:28.971Z,96996.38
2022-12-23T14:21:33.774Z,97007.06
2022-12-23T14:24:29.183Z,96996.41
2022-12-23T14:27:29.096Z,97002.84
2022-12-23T14:30:07.216Z,96997.00
2022-12-23T14:32:47.682Z,97002.31
2022-12-23T14:35:20.151Z,96995.09
2022-12-23T14:38:15.278Z,97008.78
2022-12-23T14:40:41.692Z,97001.81
2022-12-23T14:43:25.389Z,97008.50
2022-12-23T14:46:05.772Z,96998.38
2022-12-23T14:48:44.421Z,96995.97
2022-12-23T14:51:10.823Z,96987.97
2022-12-23T14:54:00.361Z,96991.69
2022-12-23T14:56:38.763Z,96991.47
2022-12-23T14:59:22.961Z,96990.38
2022-12-23T15:02:00.483Z,96989.31
2022-12-23T15:04:45.098Z,96981.53
2022-12-23T15:07:42.186Z,96991.97
2022-12-23T15:10:18.782Z,96991.16
2022-12-23T15:12:52.158Z,96997.03
2022-12-23T15:15:28.065Z,96979.69
2022-12-23T15:18:20.986Z,97002.41
2022-12-23T15:21:12.351Z,96992.25
2022-12-23T15:23:48.373Z,96988.03
2022-12-23T15:26:14.998Z,96991.72
2022-12-23T15:28:42.020Z,96984.53
2022-12-23T15:31:26.299Z,96990.94
2022-12-23T15:34:13.240Z,96995.72
2022-12-23T15:36:42.844Z,96998.13
2022-12-23T15:39:18.799Z,97005.56
2022-12-23T15:41:46.832Z,97001.88
2022-12-23T15:44:19.733Z,97007.72
2022-12-23T15:46:46.592Z,97024.53
2022-12-23T15:49:13.118Z,97012.78
2022-12-23T15:54:38.839Z,97010.88
2022-12-23T15:57:05.775Z,97034.16
2022-12-23T15:59:37.096Z,97026.16
2022-12-23T16:02:58.427Z,97033.88
2022-12-23T16:05:07.636Z,97039.00
2022-12-23T16:07:40.048Z,97030.47
2022-12-23T16:10:20.534Z,97038.75
2022-12-23T16:12:50.364Z,97041.91
2022-12-23T16:15:28.424Z,97048.31
2022-12-23T16:18:12.158Z,97045.66
2022-12-23T16:20:44.860Z,97038.16
2022-12-23T16:23:12.813Z,97048.84
2022-12-23T16:25:50.133Z,97044.56
2022-12-23T16:28:23.926Z,97049.94
2022-12-23T16:30:56.339Z,97042.94
2022-12-23T16:33:36.373Z,97048.31
2022-12-23T16:36:21.898Z,97051.81
2022-12-23T16:38:49.875Z,97051.53
2022-12-23T16:41:16.857Z,97058.75
2022-12-23T16:43:51.476Z,97060.09
2022-12-23T16:46:20.982Z,97073.47
2022-12-23T16:48:50.413Z,97072.88
2022-12-23T16:51:20.184Z,97071.81
2022-12-23T16:53:51.205Z,97059.03
2022-12-23T16:56:20.659Z,97068.63
2022-12-23T16:58:47.558Z,97069.69
2022-12-23T17:01:15.150Z,97069.97
2022-12-23T17:03:41.817Z,97076.91
2022-12-23T17:06:13.104Z,97069.41
2022-12-23T17:08:39.995Z,97087.59
2022-12-23T17:11:13.472Z,97077.69
2022-12-23T17:13:40.031Z,97090.25
2022-12-23T17:16:08.095Z,97087.31
2022-12-23T17:18:34.532Z,97083.88
2022-12-23T17:21:00.985Z,97094.03
2022-12-23T17:23:31.043Z,97078.25
2022-12-23T17:25:57.601Z,97088.38
2022-12-23T17:28:29.420Z,97099.59
2022-12-23T17:30:56.555Z,97106.28
2022-12-23T17:33:26.633Z,97102.81
2022-12-23T17:35:53.477Z,97103.84
2022-12-23T17:38:19.955Z,97105.50
2022-12-23T17:40:47.064Z,97116.16
2022-12-23T17:43:14.765Z,97113.50
2022-12-23T17:45:42.052Z,97125.50
2022-12-23T17:48:18.031Z,97137.53
2022-12-23T17:50:47.596Z,97112.63
2022-12-23T17:53:15.920Z,97131.91
2022-12-23T17:55:42.423Z,97152.44
2022-12-23T17:58:09.328Z,97163.69
2022-12-23T18:00:37.432Z,97168.22
2022-12-23T18:03:20.141Z,97165.78
2022-12-23T18:05:46.647Z,97156.06
2022-12-23T18:08:13.092Z,97172.06
2022-12-23T18:10:40.674Z,97164.50
2022-12-23T18:13:13.868Z,97159.84
2022-12-23T18:15:43.220Z,97170.78
2022-12-23T18:18:15.263Z,97173.22
2022-12-23T18:20:46.516Z,97172.41
2022-12-23T18:23:15.132Z,97181.41
2022-12-23T18:25:41.959Z,97185.41
2022-12-23T18:28:10.039Z,97202.28
2022-12-23T18:30:37.946Z,97196.34
2022-12-23T18:33:05.691Z,97205.63
2022-12-23T18:35:35.431Z,97204.31
2022-12-23T18:38:02.287Z,97209.56
2022-12-23T18:40:32.928Z,97208.53
2022-12-23T18:43:00.364Z,97203.06
2022-12-23T18:45:37.582Z,97205.31
2022-12-23T18:48:07.150Z,97196.03
2022-12-23T18:50:36.932Z,97215.81
2022-12-23T18:53:05.021Z,97222.41
2022-12-23T18:55:32.058Z,97215.31
2022-12-23T18:58:01.076Z,97206.72
2022-12-23T19:00:30.498Z,97217.38
2022-12-23T19:02:57.685Z,97233.38
2022-12-23T19:05:29.349Z,97231.75
2022-12-23T19:07:57.945Z,97241.25
2022-12-23T19:10:28.064Z,97255.72
2022-12-23T19:12:55.009Z,97250.34
2022-12-23T19:15:22.840Z,97273.81
2022-12-23T19:17:50.288Z,97279.16
2022-12-23T19:20:18.383Z,97280.03
2022-12-23T19:22:46.887Z,97297.75
2022-12-23T19:25:16.677Z,97287.09
2022-12-23T19:27:44.358Z,97284.47
2022-12-23T19:30:13.906Z,97287.09
2022-12-23T19:32:40.798Z,97270.94
2022-12-23T19:35:07.724Z,97282.56
2022-12-23T19:37:34.595Z,97289.19
2022-12-23T19:40:01.065Z,97283.25
2022-12-23T19:42:27.508Z,97290.69
2022-12-23T19:44:53.948Z,97281.63
2022-12-23T19:47:20.394Z,97278.94
2022-12-23T19:49:46.842Z,97286.47
2022-12-23T19:52:13.458Z,97305.06
2022-12-23T19:54:39.909Z,97312.00
2022-12-23T19:57:06.434Z,97301.44
2022-12-23T19:59:32.865Z,97306.53
2022-12-23T20:01:59.391Z,97288.75
2022-12-23T20:04:26.225Z,97304.50
2022-12-23T20:06:52.667Z,97328.50
2022-12-23T20:09:19.136Z,97328.16
2022-12-23T20:11:48.127Z,97354.59
2022-12-23T20:14:17.052Z,97350.31
2022-12-23T20:16:44.344Z,97349.03
2022-12-23T20:19:11.133Z,97361.88
2022-12-23T20:21:37.809Z,97369.38
2022-12-23T20:24:05.852Z,97372.13
2022-12-23T20:26:33.113Z,97360.59
2022-12-23T20:28:59.838Z,97374.72
2022-12-23T20:31:28.877Z,97372.22
2022-12-23T20:33:56.841Z,97373.75
2022-12-23T20:36:28.950Z,97372.38
2022-12-23T20:38:56.180Z,97393.59
2022-12-23T20:41:25.490Z,97398.63
2022-12-23T20:44:31.686Z,97400.22
2022-12-23T20:46:39.419Z,97408.28
2022-12-23T20:49:05.923Z,97412.03
2022-12-23T20:51:32.384Z,97409.91
2022-12-23T20:53:59.866Z,97415.63
2022-12-23T20:56:29.114Z,97412.97
2022-12-23T20:58:57.510Z,97424.09
2022-12-23T21:01:30.012Z,97429.44
2022-12-23T21:03:58.533Z,97437.50
2022-12-23T21:06:25.896Z,97438.47
2022-12-23T21:08:55.481Z,97433.75
2022-12-23T21:11:23.359Z,97435.72
2022-12-23T21:13:50.187Z,97428.13
2022-12-23T21:16:17.102Z,97444.09
2022-12-23T21:18:46.024Z,97451.06
2022-12-23T21:21:12.849Z,97409.81
2022-12-23T21:23:40.760Z,97442.16
2022-12-23T21:26:08.934Z,97431.50
2022-12-23T21:28:36.081Z,97435.84
2022-12-23T21:31:02.559Z,97443.53
2022-12-23T21:33:29.127Z,97438.44
2022-12-23T21:35:55.530Z,97437.66
2022-12-23T21:38:21.931Z,97439.09
2022-12-23T21:40:48.386Z,97444.34
2022-12-23T21:43:14.844Z,97453.63
2022-12-23T21:45:41.235Z,97460.22
2022-12-23T21:48:07.656Z,97445.53
2022-12-23T21:50:34.097Z,97460.53
2022-12-23T21:53:00.505Z,97454.41
2022-12-23T21:55:26.912Z,97461.59
2022-12-23T21:57:53.329Z,97470.88
2022-12-23T22:00:19.858Z,97466.22
2022-12-23T22:02:46.264Z,97470.72
2022-12-23T22:05:12.642Z,97473.38
2022-12-23T22:07:39.116Z,97488.34
2022-12-23T22:10:06.224Z,97473.53
2022-12-23T22:12:32.691Z,97477.34
2022-12-23T22:14:59.105Z,97481.84
2022-12-23T22:17:25.527Z,97488.81
2022-12-23T22:19:51.978Z,97484.97
2022-12-23T22:22:18.381Z,97506.53
2022-12-23T22:24:44.862Z,97505.63
2022-12-23T22:27:11.270Z,97490.00
2022-12-23T22:29:37.725Z,97510.84
2022-12-23T22:32:04.267Z,97511.66
2022-12-23T22:34:30.730Z,97511.78
2022-12-23T22:36:57.176Z,97502.63
2022-12-23T22:39:23.632Z,97498.38
2022-12-23T22:41:51.317Z,97514.56
2022-12-23T22:44:18.738Z,97500.44
2022-12-23T22:46:45.283Z,97503.47
2022-12-23T22:49:12.962Z,97514.09
2022-12-23T22:51:40.551Z,97525.31
2022-12-23T22:54:07.113Z,97519.44
2022-12-23T22:56:33.751Z,97524.88
2022-12-23T22:59:00.172Z,97509.91
2022-12-23T23:01:29.501Z,97529.72
2022-12-23T23:03:58.026Z,97533.44
2022-12-23T23:06:26.851Z,97534.00
2022-12-23T23:08:54.744Z,97541.84
2022-12-23T23:11:21.897Z,97538.63
2022-12-23T23:13:48.419Z,97553.91
2022-12-23T23:16:15.035Z,97552.28
2022-12-23T23:18:41.571Z,97547.31
2022-12-23T23:21:09.772Z,97553.22
2022-12-23T23:23:36.289Z,97556.59
2022-12-23T23:26:02.839Z,97570.91
2022-12-23T23:28:29.318Z,97565.97
2022-12-23T23:31:23.668Z,97580.09
2022-12-23T23:33:42.484Z,97589.47
2022-12-23T23:36:09.082Z,97593.25
2022-12-23T23:38:35.585Z,97582.19
2022-12-23T23:41:02.629Z,97583.31
2022-12-23T23:43:29.037Z,97589.91
2022-12-23T23:45:55.655Z,97586.53
2022-12-23T23:48:22.528Z,97596.72
2022-12-23T23:50:48.979Z,97604.72
2022-12-23T23:53:15.777Z,97599.28
2022-12-23T23:55:42.234Z,97597.66
2022-12-23T23:58:08.736Z,97598.47
